Time;durP1;ratioP1;P1;durP2;ratioP2;P2;SDS_P1;SDS_P2;PMS_P1;PMS_P2;Temp;Humidity;BMP_temperature;BMP_pressure;BME280_temperature;BME280_humidity;BME280_pressure;Samples;Min_cycle;Max_cycle;Signal;HPM_P1;HPM_P2
2023/03/02 00:01:49;;;;;;;19.27;9.97;;;2.60;99.90;;;;;;4931026;28;47761;-80
2023/03/02 00:04:27;;;;;;;18.00;11.00;;;2.70;99.90;;;;;;4912437;29;38147;-79
2023/03/02 00:06:56;;;;;;;18.43;11.77;;;2.60;99.90;;;;;;4923622;29;36855;-79
2023/03/02 00:09:23;;;;;;;18.17;11.93;;;2.70;99.90;;;;;;4916829;28;38649;-79
2023/03/02 00:11:50;;;;;;;20.27;12.03;;;2.70;99.90;;;;;;4915662;28;39041;-79
2023/03/02 00:14:16;;;;;;;21.23;12.10;;;2.60;99.90;;;;;;4912814;29;38507;-80
2023/03/02 00:16:42;;;;;;;22.60;12.77;;;2.60;99.90;;;;;;4924049;28;37099;-78
2023/03/02 00:19:08;;;;;;;23.07;14.50;;;2.50;99.90;;;;;;4911000;29;36205;-78
2023/03/02 00:21:34;;;;;;;26.77;14.60;;;2.50;99.90;;;;;;4925252;28;37662;-79
2023/03/02 00:24:01;;;;;;;23.13;14.87;;;2.50;99.90;;;;;;4909954;28;39125;-79
2023/03/02 00:26:27;;;;;;;27.40;16.93;;;2.40;99.90;;;;;;4928050;28;40187;-79
2023/03/02 00:28:53;;;;;;;33.77;19.40;;;2.30;99.90;;;;;;4903415;29;37751;-80
2023/03/02 00:31:19;;;;;;;30.57;18.77;;;2.30;99.90;;;;;;4904767;29;38676;-79
2023/03/02 00:33:45;;;;;;;33.30;20.67;;;2.40;99.90;;;;;;4920130;28;39846;-79
2023/03/02 00:36:19;;;;;;;38.77;23.27;;;2.50;99.90;;;;;;4904666;29;37852;-80
2023/03/02 00:38:46;;;;;;;36.70;22.23;;;2.50;99.90;;;;;;4910183;29;36325;-80
2023/03/02 00:41:13;;;;;;;39.03;24.43;;;2.40;99.90;;;;;;4903226;29;39305;-80
2023/03/02 00:43:40;;;;;;;42.27;24.53;;;2.50;99.90;;;;;;4918992;28;37617;-79
2023/03/02 00:46:14;;;;;;;45.10;24.57;;;2.40;99.90;;;;;;4913115;29;38499;-79
2023/03/02 00:48:41;;;;;;;43.90;25.87;;;2.40;99.90;;;;;;4914655;29;37903;-78
2023/03/02 00:51:08;;;;;;;47.83;26.93;;;2.40;99.90;;;;;;4918414;29;37686;-79
2023/03/02 00:53:37;;;;;;;43.67;27.03;;;2.30;99.90;;;;;;4904833;29;39474;-79
2023/03/02 00:56:04;;;;;;;44.63;26.93;;;2.40;99.90;;;;;;4919519;28;39947;-79
2023/03/02 00:58:31;;;;;;;51.50;28.67;;;2.40;99.90;;;;;;4908784;29;37744;-79
2023/03/02 01:01:04;;;;;;;51.13;31.03;;;2.30;99.90;;;;;;4912094;29;39444;-80
2023/03/02 01:03:30;;;;;;;52.77;29.57;;;2.30;99.90;;;;;;4923647;28;47285;-78
2023/03/02 01:05:56;;;;;;;52.23;30.13;;;2.30;99.90;;;;;;4912207;29;38153;-79
2023/03/02 01:08:28;;;;;;;59.23;33.83;;;2.20;99.90;;;;;;4914609;29;36211;-83
2023/03/02 01:11:18;;;;;;;59.70;32.90;;;2.20;99.90;;;;;;4952610;28;39049;-83
2023/03/02 01:13:59;;;;;;;60.70;34.00;;;2.20;99.90;;;;;;4963056;28;47824;-82
2023/03/02 01:16:47;;;;;;;57.50;33.80;;;2.20;99.90;;;;;;4935694;28;38623;-82
2023/03/02 01:19:16;;;;;;;59.87;34.03;;;2.20;99.90;;;;;;4943353;29;37811;-84
2023/03/02 01:21:42;;;;;;;61.90;34.63;;;2.20;99.90;;;;;;4939391;29;38208;-81
2023/03/02 01:24:10;;;;;;;68.23;37.80;;;2.10;99.90;;;;;;4944584;28;38530;-82
2023/03/02 01:26:40;;;;;;;61.57;35.90;;;2.10;99.90;;;;;;4952527;28;38432;-83
2023/03/02 01:32:26;;;;;;;66.53;37.90;;;2.10;99.90;;;;;;5319730;23;20031;-82
2023/03/02 01:35:32;;;;;;;71.70;38.60;;;2.00;99.90;;;;;;4944563;29;48367;-83
2023/03/02 01:37:58;;;;;;;66.27;37.93;;;2.10;99.90;;;;;;4938796;29;48703;-82
2023/03/02 01:40:41;;;;;;;69.23;39.73;;;2.00;99.90;;;;;;4954508;28;37949;-83
2023/03/02 01:43:12;;;;;;;71.45;40.60;;;2.00;99.90;;;;;;4956767;28;39093;-82
2023/03/02 01:45:52;;;;;;;65.23;38.83;;;2.00;99.90;;;;;;4965173;28;39274;-81
2023/03/02 01:48:45;;;;;;;73.70;38.50;;;2.00;99.90;;;;;;4960213;28;39266;-83
2023/03/02 01:51:33;;;;;;;78.25;41.95;;;2.00;99.90;;;;;;4941869;28;37720;-83
2023/03/02 01:54:21;;;;;;;80.17;41.80;;;1.90;99.90;;;;;;4943408;28;38859;-83
2023/03/02 01:57:01;;;;;;;76.60;42.20;;;2.00;99.90;;;;;;4938032;29;48689;-82
2023/03/02 01:59:30;;;;;;;78.37;42.73;;;1.90;99.90;;;;;;5005312;23;38414;-83
2023/03/02 02:02:00;;;;;;;74.87;42.07;;;1.90;99.90;;;;;;5299248;23;37942;-75
2023/03/02 02:04:36;;;;;;;73.97;41.93;;;1.90;99.90;;;;;;4871180;29;39217;-76
2023/03/02 02:07:05;;;;;;;78.73;42.77;;;1.80;99.90;;;;;;4903448;29;39029;-76
2023/03/02 02:09:36;;;;;;;80.27;43.13;;;1.80;99.90;;;;;;4892713;29;39755;-75
2023/03/02 02:12:04;;;;;;;78.43;41.77;;;1.80;99.90;;;;;;4891516;29;36325;-76
2023/03/02 02:14:31;;;;;;;77.87;43.17;;;1.70;99.90;;;;;;4903581;29;39573;-75
2023/03/02 02:16:57;;;;;;;77.00;40.63;;;1.70;99.90;;;;;;4890352;29;40090;-75
2023/03/02 02:19:53;;;;;;;72.90;40.13;;;1.70;99.90;;;;;;4888309;29;37168;-76
2023/03/02 02:22:37;;;;;;;77.53;39.60;;;1.70;99.90;;;;;;4886349;29;35943;-76
2023/03/02 02:25:35;;;;;;;72.47;38.67;;;1.70;99.90;;;;;;4890408;29;38639;-75
2023/03/02 02:28:07;;;;;;;71.47;38.63;;;1.60;99.90;;;;;;4901637;29;47293;-75
2023/03/02 02:30:36;;;;;;;71.68;38.25;;;1.60;99.90;;;;;;4904470;29;47021;-75
2023/03/02 02:33:04;;;;;;;71.00;36.73;;;1.60;99.90;;;;;;4903064;29;36306;-76
2023/03/02 02:35:33;;;;;;;71.17;38.23;;;1.60;99.90;;;;;;4889682;29;37729;-75
2023/03/02 02:38:05;;;;;;;75.50;39.60;;;1.60;99.90;;;;;;4900171;29;38252;-75
2023/03/02 02:40:50;;;;;;;71.63;36.22;;;1.60;99.90;;;;;;4904037;29;47327;-75
2023/03/02 02:43:19;;;;;;;69.73;36.73;;;1.60;99.90;;;;;;4889631;29;37673;-77
2023/03/02 02:45:47;;;;;;;76.60;37.63;;;1.60;99.90;;;;;;4893164;29;37585;-76
2023/03/02 02:48:22;;;;;;;75.33;38.53;;;1.60;99.90;;;;;;4889960;29;38210;-77
2023/03/02 02:50:58;;;;;;;78.63;39.37;;;1.60;99.90;;;;;;4888672;29;39119;-76
2023/03/02 02:53:47;;;;;;;70.60;37.07;;;1.60;99.90;;;;;;4887043;29;37425;-76
2023/03/02 02:56:14;;;;;;;69.37;36.80;;;1.50;99.90;;;;;;4887460;29;37507;-76
2023/03/02 02:58:52;;;;;;;75.53;38.97;;;1.50;99.90;;;;;;4890286;29;37630;-77
2023/03/02 03:01:24;;;;;;;80.37;39.23;;;1.50;99.90;;;;;;4889582;29;39922;-76
2023/03/02 03:04:02;;;;;;;75.65;38.42;;;1.50;99.90;;;;;;4902462;28;36910;-76
2023/03/02 03:06:40;;;;;;;72.57;37.43;;;1.50;99.90;;;;;;4923545;28;48983;-76
2023/03/02 03:09:10;;;;;;;75.77;37.53;;;1.40;99.90;;;;;;4909185;28;37524;-76
2023/03/02 03:11:40;;;;;;;84.93;40.50;;;1.40;99.90;;;;;;4910583;29;38886;-76
2023/03/02 03:14:11;;;;;;;77.73;39.60;;;1.40;99.90;;;;;;4924906;28;37043;-76
2023/03/02 03:16:40;;;;;;;86.90;40.47;;;1.40;99.90;;;;;;4924625;28;38649;-76
2023/03/02 03:19:21;;;;;;;85.10;41.50;;;1.40;99.90;;;;;;4927570;28;38548;-76
2023/03/02 03:21:50;;;;;;;74.40;38.93;;;1.40;99.90;;;;;;4925943;28;38230;-76
2023/03/02 03:24:18;;;;;;;76.60;38.47;;;1.50;99.90;;;;;;4926187;28;38315;-75
2023/03/02 03:26:44;;;;;;;82.00;38.77;;;1.50;99.90;;;;;;4908190;29;37422;-76
2023/03/02 03:29:11;;;;;;;82.10;39.27;;;1.50;99.90;;;;;;4909070;28;38064;-76
2023/03/02 03:31:38;;;;;;;80.73;39.23;;;1.40;99.90;;;;;;4906702;28;37192;-75
2023/03/02 03:34:05;;;;;;;80.00;38.77;;;1.40;99.90;;;;;;4926282;28;37109;-76
2023/03/02 03:36:32;;;;;;;78.40;38.13;;;1.40;99.90;;;;;;4926117;28;37291;-76
2023/03/02 03:38:58;;;;;;;86.30;40.90;;;1.50;99.90;;;;;;4909191;28;37377;-76
2023/03/02 03:41:25;;;;;;;77.87;38.83;;;1.50;99.90;;;;;;4909133;29;36973;-76
2023/03/02 03:43:52;;;;;;;82.40;38.93;;;1.50;99.90;;;;;;4911275;29;36927;-75
2023/03/02 03:46:18;;;;;;;79.97;39.00;;;1.50;99.90;;;;;;4907924;29;39217;-76
2023/03/02 03:48:44;;;;;;;81.07;41.00;;;1.50;99.90;;;;;;4924572;28;38051;-76
2023/03/02 03:51:10;;;;;;;77.13;38.70;;;1.50;99.90;;;;;;4908208;29;37385;-76
2023/03/02 03:53:37;;;;;;;74.37;37.93;;;1.60;99.90;;;;;;4915076;29;36308;-76
2023/03/02 03:56:03;;;;;;;79.30;40.00;;;1.50;99.90;;;;;;4923791;28;37452;-76
2023/03/02 03:58:30;;;;;;;83.73;40.73;;;1.50;99.90;;;;;;4926998;28;39622;-76
2023/03/02 04:00:57;;;;;;;81.97;39.47;;;1.40;99.90;;;;;;4926547;28;38927;-76
2023/03/02 04:03:24;;;;;;;79.30;39.00;;;1.40;99.90;;;;;;4903108;29;35385;-76
2023/03/02 04:05:51;;;;;;;86.57;41.33;;;1.40;99.90;;;;;;4893356;29;37887;-76
2023/03/02 04:08:18;;;;;;;85.63;41.07;;;1.40;99.90;;;;;;4887267;29;38997;-76
2023/03/02 04:10:44;;;;;;;85.43;41.37;;;1.40;99.90;;;;;;4893161;29;36991;-75
2023/03/02 04:13:11;;;;;;;74.73;38.80;;;1.40;99.90;;;;;;4907430;29;37178;-76
2023/03/02 04:15:38;;;;;;;83.30;40.83;;;1.50;99.90;;;;;;4909536;29;40057;-76
2023/03/02 04:18:04;;;;;;;87.07;43.23;;;1.50;99.90;;;;;;4902393;29;37438;-76
2023/03/02 04:20:31;;;;;;;85.47;40.50;;;1.50;99.90;;;;;;4893957;29;37130;-76
2023/03/02 04:22:57;;;;;;;86.43;40.87;;;1.40;99.90;;;;;;4897165;29;37145;-76
2023/03/02 04:25:27;;;;;;;88.33;39.87;;;1.40;99.90;;;;;;4900517;29;38034;-76
2023/03/02 04:27:53;;;;;;;87.70;42.17;;;1.30;99.90;;;;;;4886404;29;37320;-76
2023/03/02 04:30:23;;;;;;;79.33;38.47;;;1.40;99.90;;;;;;4884499;29;37900;-76
2023/03/02 04:32:49;;;;;;;83.27;41.07;;;1.40;99.90;;;;;;4887647;29;37271;-76
2023/03/02 04:35:16;;;;;;;80.60;40.07;;;1.30;99.90;;;;;;4897794;29;39278;-76
2023/03/02 04:37:42;;;;;;;80.80;38.43;;;1.30;99.90;;;;;;4913962;29;37068;-75
2023/03/02 04:40:11;;;;;;;77.03;38.60;;;1.20;99.90;;;;;;4907610;29;39082;-76
2023/03/02 04:42:37;;;;;;;79.47;39.70;;;1.10;99.90;;;;;;4898044;29;37312;-76
2023/03/02 04:45:04;;;;;;;85.77;39.57;;;1.20;99.90;;;;;;4910671;29;38998;-76
2023/03/02 04:47:30;;;;;;;87.40;39.67;;;1.20;99.90;;;;;;4914008;29;37846;-76
2023/03/02 04:49:56;;;;;;;86.23;40.27;;;1.20;99.90;;;;;;4906840;29;39235;-76
2023/03/02 04:52:23;;;;;;;87.67;40.27;;;1.20;99.90;;;;;;4902975;29;36483;-76
2023/03/02 04:54:50;;;;;;;86.43;40.83;;;1.20;99.90;;;;;;4902884;29;38097;-76
2023/03/02 04:57:16;;;;;;;85.90;40.97;;;1.10;99.90;;;;;;4905055;29;38700;-76
2023/03/02 04:59:43;;;;;;;86.20;39.37;;;1.20;99.90;;;;;;4908249;29;38051;-76
2023/03/02 05:02:09;;;;;;;89.37;42.83;;;1.20;99.90;;;;;;4891414;29;36103;-76
2023/03/02 05:04:35;;;;;;;92.10;40.40;;;1.20;99.90;;;;;;4892533;29;38828;-75
2023/03/02 05:07:02;;;;;;;84.13;39.63;;;1.20;99.90;;;;;;4892146;29;37029;-76
2023/03/02 05:09:29;;;;;;;81.17;38.70;;;1.20;99.90;;;;;;4897344;29;36860;-76
2023/03/02 05:11:57;;;;;;;90.50;41.23;;;1.20;99.90;;;;;;4909348;29;36267;-76
2023/03/02 05:14:24;;;;;;;83.63;40.03;;;1.20;99.90;;;;;;4892542;29;38688;-75
2023/03/02 05:16:51;;;;;;;88.97;40.17;;;1.20;99.90;;;;;;4911593;29;38213;-76
2023/03/02 05:19:17;;;;;;;82.10;38.97;;;1.20;99.90;;;;;;4909212;29;37819;-76
2023/03/02 05:21:44;;;;;;;79.93;39.87;;;1.10;99.90;;;;;;4910933;29;37091;-76
2023/03/02 05:24:15;;;;;;;86.57;39.10;;;1.10;99.90;;;;;;4909416;29;39598;-76
2023/03/02 05:26:41;;;;;;;84.97;39.50;;;1.20;99.90;;;;;;4893632;29;37020;-76
2023/03/02 05:29:08;;;;;;;96.47;40.00;;;1.10;99.90;;;;;;4907079;29;38330;-75
2023/03/02 05:31:40;;;;;;;83.23;37.93;;;1.10;99.90;;;;;;4910446;29;36665;-76
2023/03/02 05:34:08;;;;;;;80.15;37.70;;;1.00;99.90;;;;;;4909248;29;38284;-76
2023/03/02 05:36:35;;;;;;;74.07;36.67;;;1.00;99.90;;;;;;4896668;29;37380;-76
2023/03/02 05:39:01;;;;;;;81.33;38.60;;;1.00;99.90;;;;;;4900995;29;37368;-75
2023/03/02 05:41:27;;;;;;;76.63;37.47;;;1.00;99.90;;;;;;4908687;29;46828;-75
2023/03/02 05:43:53;;;;;;;85.37;38.80;;;1.00;99.90;;;;;;4892244;29;38690;-75
2023/03/02 05:46:20;;;;;;;86.83;39.77;;;1.00;99.90;;;;;;4904894;29;39953;-75
2023/03/02 05:48:46;;;;;;;83.90;39.13;;;1.00;99.90;;;;;;4905492;29;38064;-76
2023/03/02 05:51:12;;;;;;;84.83;38.70;;;1.00;99.90;;;;;;4904592;29;38205;-76
2023/03/02 05:53:38;;;;;;;91.07;39.60;;;1.00;99.90;;;;;;4913639;29;37755;-76
2023/03/02 05:56:04;;;;;;;72.10;34.87;;;1.00;99.90;;;;;;4903456;29;38638;-76
2023/03/02 05:58:31;;;;;;;79.10;36.47;;;0.90;99.90;;;;;;4901034;29;36904;-76
2023/03/02 06:01:03;;;;;;;90.30;40.03;;;0.90;99.90;;;;;;4898753;29;37307;-76
2023/03/02 06:03:29;;;;;;;83.43;39.03;;;0.90;99.90;;;;;;4883639;29;47208;-75
2023/03/02 06:05:55;;;;;;;80.07;37.13;;;0.90;99.90;;;;;;4892036;29;37296;-75
2023/03/02 06:08:21;;;;;;;82.90;39.50;;;0.90;99.90;;;;;;4887255;29;36943;-75
2023/03/02 06:10:49;;;;;;;79.67;37.57;;;0.90;99.90;;;;;;4892766;29;37534;-76
2023/03/02 06:13:16;;;;;;;87.20;37.07;;;1.00;99.90;;;;;;4891527;29;37506;-76
2023/03/02 06:15:42;;;;;;;81.50;37.83;;;1.00;99.90;;;;;;4892039;29;39021;-76
2023/03/02 06:18:11;;;;;;;77.27;36.93;;;1.00;99.90;;;;;;4908971;29;38363;-76
2023/03/02 06:20:37;;;;;;;80.50;38.30;;;0.90;99.90;;;;;;4884170;29;36296;-76
2023/03/02 06:23:03;;;;;;;80.77;36.93;;;0.90;99.90;;;;;;4890219;29;38839;-76
2023/03/02 06:25:30;;;;;;;86.33;39.30;;;0.90;99.90;;;;;;4907591;29;36244;-76
2023/03/02 06:27:56;;;;;;;74.97;36.30;;;0.90;99.90;;;;;;4911166;29;38088;-76
2023/03/02 06:30:24;;;;;;;80.93;37.40;;;0.90;99.90;;;;;;4891799;29;37997;-75
2023/03/02 06:32:51;;;;;;;73.10;36.87;;;0.80;99.90;;;;;;4904543;29;38998;-75
2023/03/02 06:35:17;;;;;;;70.63;35.20;;;0.80;99.90;;;;;;4878722;29;37177;-75
2023/03/02 06:37:43;;;;;;;81.13;38.53;;;0.90;99.90;;;;;;4886874;29;37308;-75
2023/03/02 06:40:12;;;;;;;73.10;36.83;;;0.80;99.90;;;;;;4904226;29;38259;-75
2023/03/02 06:42:39;;;;;;;84.47;36.90;;;0.80;99.90;;;;;;4886868;29;38016;-75
2023/03/02 06:45:06;;;;;;;74.73;36.10;;;0.80;99.90;;;;;;4889501;29;39323;-75
2023/03/02 06:47:32;;;;;;;74.40;37.47;;;0.80;99.90;;;;;;4903374;29;38076;-75
2023/03/02 06:49:59;;;;;;;74.73;36.20;;;0.90;99.90;;;;;;4888717;29;36513;-76
2023/03/02 06:52:26;;;;;;;77.07;37.37;;;0.90;99.90;;;;;;4906854;29;39574;-77
2023/03/02 06:54:53;;;;;;;73.70;36.07;;;0.90;99.90;;;;;;4890182;29;36846;-76
2023/03/02 06:57:19;;;;;;;70.27;34.60;;;0.90;99.90;;;;;;4905012;29;38705;-76
2023/03/02 06:59:45;;;;;;;75.47;36.80;;;1.00;99.90;;;;;;4905803;29;37677;-76
2023/03/02 07:02:11;;;;;;;72.90;34.90;;;0.90;99.90;;;;;;4905578;29;38875;-76
2023/03/02 07:04:38;;;;;;;73.87;35.43;;;0.90;99.90;;;;;;4902387;29;37522;-77
2023/03/02 07:07:04;;;;;;;68.67;33.53;;;0.90;99.90;;;;;;4902545;29;38949;-76
2023/03/02 07:09:33;;;;;;;76.10;37.20;;;0.90;99.90;;;;;;4905391;29;38486;-75
2023/03/02 07:12:00;;;;;;;78.67;36.63;;;0.80;99.90;;;;;;4894208;29;39098;-75
2023/03/02 07:14:26;;;;;;;65.10;34.40;;;0.90;99.90;;;;;;4907587;29;37665;-75
2023/03/02 07:16:52;;;;;;;73.10;35.00;;;0.90;99.90;;;;;;4895945;29;37286;-74
2023/03/02 07:19:18;;;;;;;71.60;35.63;;;1.00;99.90;;;;;;4902120;29;36679;-75
2023/03/02 07:21:44;;;;;;;69.27;34.10;;;1.00;99.90;;;;;;4908482;29;39667;-75
2023/03/02 07:24:10;;;;;;;70.17;34.10;;;1.00;99.90;;;;;;4887874;29;38748;-75
2023/03/02 07:26:36;;;;;;;71.17;34.83;;;1.10;99.90;;;;;;4907243;29;38059;-75
2023/03/02 07:29:02;;;;;;;62.60;31.43;;;1.10;99.90;;;;;;4907561;29;38980;-77
2023/03/02 07:31:28;;;;;;;68.23;33.50;;;1.10;99.90;;;;;;4893650;29;37583;-76
2023/03/02 07:33:54;;;;;;;65.43;33.07;;;1.10;99.90;;;;;;4889593;29;37055;-74
2023/03/02 07:36:21;;;;;;;72.23;33.10;;;1.10;99.90;;;;;;4904342;29;34071;-75
2023/03/02 07:38:47;;;;;;;67.40;33.03;;;1.10;99.90;;;;;;4902798;29;37220;-75
2023/03/02 07:41:15;;;;;;;67.87;33.20;;;1.20;99.90;;;;;;4903693;29;38035;-76
2023/03/02 07:43:41;;;;;;;67.43;33.40;;;1.20;99.90;;;;;;4892840;29;37679;-74
2023/03/02 07:46:08;;;;;;;61.17;31.70;;;1.30;99.90;;;;;;4890589;29;38965;-75
2023/03/02 07:48:35;;;;;;;63.00;33.10;;;1.40;99.90;;;;;;4894725;29;37300;-75
2023/03/02 07:51:02;;;;;;;62.53;32.87;;;1.40;99.90;;;;;;4908449;29;37279;-75
2023/03/02 07:53:30;;;;;;;68.80;34.87;;;1.40;99.90;;;;;;4906916;29;38733;-74
2023/03/02 07:55:57;;;;;;;63.17;33.97;;;1.40;99.90;;;;;;4912014;29;40973;-76
2023/03/02 07:58:23;;;;;;;63.40;33.87;;;1.40;99.90;;;;;;4913867;29;35840;-77
2023/03/02 08:00:49;;;;;;;63.63;32.97;;;1.40;99.90;;;;;;4908418;29;37909;-76
2023/03/02 08:03:15;;;;;;;61.50;31.80;;;1.50;99.90;;;;;;4907876;29;38446;-76
2023/03/02 08:05:41;;;;;;;62.47;32.00;;;1.50;99.90;;;;;;4920878;29;38321;-75
2023/03/02 08:08:07;;;;;;;65.17;33.47;;;1.50;99.90;;;;;;4918695;29;38012;-79
2023/03/02 08:10:34;;;;;;;67.20;34.17;;;1.50;99.90;;;;;;4920408;29;38849;-75
2023/03/02 08:13:01;;;;;;;60.70;30.20;;;1.60;99.90;;;;;;4908576;29;39155;-75
2023/03/02 08:15:27;;;;;;;59.50;32.20;;;1.60;99.90;;;;;;4908222;29;48493;-75
2023/03/02 08:17:53;;;;;;;64.83;33.03;;;1.70;99.90;;;;;;4906655;29;37329;-75
2023/03/02 08:20:20;;;;;;;55.30;29.97;;;1.70;99.90;;;;;;4910796;29;40780;-76
2023/03/02 08:22:46;;;;;;;54.83;30.50;;;1.70;99.90;;;;;;4895478;29;37564;-75
2023/03/02 08:25:12;;;;;;;53.13;29.70;;;1.80;99.90;;;;;;4907762;29;37779;-74
2023/03/02 08:27:39;;;;;;;56.07;29.00;;;1.90;99.90;;;;;;4899834;29;36223;-75
2023/03/02 08:30:06;;;;;;;57.10;29.70;;;1.90;99.90;;;;;;4911082;29;38379;-75
2023/03/02 08:32:33;;;;;;;48.90;27.93;;;2.00;99.90;;;;;;4917422;29;38050;-75
2023/03/02 08:34:59;;;;;;;50.60;26.83;;;2.00;99.90;;;;;;4887994;29;36717;-75
2023/03/02 08:37:25;;;;;;;50.03;26.73;;;2.10;99.90;;;;;;4893461;29;36247;-75
2023/03/02 08:39:51;;;;;;;49.30;27.00;;;2.20;99.90;;;;;;4894208;29;37984;-75
2023/03/02 08:42:17;;;;;;;46.10;26.43;;;2.20;99.90;;;;;;4898213;29;37291;-75
2023/03/02 08:44:43;;;;;;;45.83;26.40;;;2.30;99.90;;;;;;4902771;29;37675;-76
2023/03/02 08:47:10;;;;;;;48.57;26.17;;;2.30;99.90;;;;;;4896721;29;39111;-77
2023/03/02 08:49:36;;;;;;;47.03;26.93;;;2.40;99.90;;;;;;4894433;29;39240;-75
2023/03/02 08:52:03;;;;;;;45.20;25.33;;;2.50;99.90;;;;;;4923246;29;38845;-76
2023/03/02 08:54:31;;;;;;;46.93;26.10;;;2.50;99.90;;;;;;4891787;29;37135;-77
2023/03/02 08:56:57;;;;;;;44.37;23.70;;;2.60;99.90;;;;;;4896891;29;37622;-76
2023/03/02 08:59:24;;;;;;;41.00;22.73;;;2.70;99.90;;;;;;4893974;29;38783;-79
2023/03/02 09:01:50;;;;;;;41.60;23.60;;;2.70;99.90;;;;;;4903074;29;38523;-77
2023/03/02 09:04:16;;;;;;;46.33;24.93;;;2.80;99.90;;;;;;4889885;29;37025;-77
2023/03/02 09:06:44;;;;;;;45.60;23.40;;;2.80;99.90;;;;;;4891924;29;38767;-77
2023/03/02 09:09:14;;;;;;;40.13;22.87;;;2.90;99.90;;;;;;4888361;29;37295;-77
2023/03/02 09:11:42;;;;;;;44.77;23.87;;;2.90;99.90;;;;;;4905608;29;38414;-77
2023/03/02 09:14:09;;;;;;;39.23;23.57;;;2.90;99.90;;;;;;4882704;29;36986;-76
2023/03/02 09:16:35;;;;;;;35.70;21.70;;;3.10;99.90;;;;;;4904929;29;38378;-77
2023/03/02 09:19:01;;;;;;;39.07;22.77;;;3.10;99.90;;;;;;4892973;29;39520;-77
2023/03/02 09:21:27;;;;;;;39.60;23.63;;;3.20;99.90;;;;;;4909586;29;48863;-76
2023/03/02 09:23:56;;;;;;;37.50;22.73;;;3.20;99.90;;;;;;4899496;29;38352;-77
2023/03/02 09:26:24;;;;;;;40.17;23.30;;;3.30;99.90;;;;;;4910628;29;37603;-77
2023/03/02 09:28:50;;;;;;;37.90;22.60;;;3.20;99.90;;;;;;4912237;29;38968;-78
2023/03/02 09:31:16;;;;;;;39.73;23.00;;;3.40;99.90;;;;;;4905320;29;38799;-76
2023/03/02 09:33:42;;;;;;;38.47;21.80;;;3.40;99.90;;;;;;4896101;29;37198;-79
2023/03/02 09:36:12;;;;;;;37.13;21.57;;;3.50;99.90;;;;;;4916737;29;37560;-79
2023/03/02 09:38:38;;;;;;;38.53;23.03;;;3.60;99.90;;;;;;4913539;29;38892;-82
2023/03/02 09:41:16;;;;;;;38.33;21.97;;;3.70;99.90;;;;;;4932771;29;37729;-79
2023/03/02 09:44:05;;;;;;;39.60;22.03;;;3.60;99.90;;;;;;4934314;29;38172;-81
2023/03/02 09:46:53;;;;;;;33.60;19.60;;;3.70;99.90;;;;;;4931758;29;49623;-80
2023/03/02 09:49:32;;;;;;;32.70;19.33;;;3.90;99.90;;;;;;4916064;29;36427;-80
2023/03/02 09:52:16;;;;;;;33.17;18.87;;;3.80;99.90;;;;;;4935666;29;39650;-80
2023/03/02 09:54:44;;;;;;;31.33;18.20;;;4.00;99.90;;;;;;4936817;28;47709;-80
2023/03/02 09:57:21;;;;;;;33.17;18.53;;;4.10;99.90;;;;;;4902436;29;36939;-78
2023/03/02 09:59:58;;;;;;;33.73;19.57;;;4.10;99.90;;;;;;4911289;29;39641;-77
2023/03/02 10:02:24;;;;;;;30.53;16.83;;;4.20;99.90;;;;;;4906881;29;38445;-77
2023/03/02 10:04:53;;;;;;;29.43;16.80;;;4.30;99.90;;;;;;4923756;28;37055;-77
2023/03/02 10:07:28;;;;;;;31.63;18.53;;;4.50;99.90;;;;;;4913769;29;36880;-77
2023/03/02 10:10:01;;;;;;;32.93;17.83;;;4.80;99.90;;;;;;4915775;29;38097;-77
2023/03/02 10:13:01;;;;;;;29.83;17.53;;;4.90;99.90;;;;;;4913933;28;38293;-77
2023/03/02 10:15:34;;;;;;;27.63;16.43;;;5.00;99.90;;;;;;4908967;29;47412;-76
2023/03/02 10:18:12;;;;;;;31.83;15.57;;;5.00;99.90;;;;;;4924350;28;36530;-76
2023/03/02 10:20:53;;;;;;;29.27;16.73;;;5.10;99.90;;;;;;4908193;28;47092;-78
2023/03/02 10:23:37;;;;;;;28.67;17.23;;;5.10;99.90;;;;;;4926398;28;38752;-77
2023/03/02 10:26:27;;;;;;;27.73;16.53;;;5.20;99.90;;;;;;4912172;28;37145;-77
2023/03/02 10:29:02;;;;;;;31.13;17.37;;;5.30;99.90;;;;;;4927437;28;38629;-77
2023/03/02 10:31:31;;;;;;;26.70;16.80;;;5.30;99.90;;;;;;4928785;28;48888;-77
2023/03/02 10:33:58;;;;;;;29.23;17.03;;;5.30;99.90;;;;;;4929446;28;39090;-77
2023/03/02 10:36:27;;;;;;;28.63;15.73;;;5.40;99.90;;;;;;4910837;28;36565;-77
2023/03/02 10:38:55;;;;;;;27.93;15.60;;;5.60;99.90;;;;;;4929356;28;35959;-77
2023/03/02 10:41:48;;;;;;;29.20;15.57;;;5.60;99.90;;;;;;4911090;29;37778;-77
2023/03/02 10:44:26;;;;;;;27.17;16.50;;;5.70;99.90;;;;;;4929448;29;38946;-78
2023/03/02 10:46:52;;;;;;;25.83;15.13;;;5.80;99.90;;;;;;4912351;28;37232;-77
2023/03/02 10:49:41;;;;;;;27.30;16.00;;;6.00;99.90;;;;;;4927094;28;37525;-77
2023/03/02 10:52:16;;;;;;;23.83;14.77;;;6.20;99.90;;;;;;4928028;29;37743;-77
2023/03/02 10:54:42;;;;;;;24.40;13.53;;;6.30;99.90;;;;;;4927930;28;37868;-77
2023/03/02 10:57:38;;;;;;;24.63;14.63;;;6.50;99.90;;;;;;4914336;29;37111;-77
2023/03/02 11:00:13;;;;;;;25.93;14.63;;;6.60;99.90;;;;;;4929092;28;37510;-77
2023/03/02 11:02:51;;;;;;;23.17;13.97;;;6.50;99.90;;;;;;4910356;28;40623;-76
2023/03/02 11:05:34;;;;;;;24.00;13.50;;;6.50;99.90;;;;;;4910834;28;39423;-77
2023/03/02 11:08:07;;;;;;;25.95;14.90;;;6.60;99.90;;;;;;4912950;29;38396;-77
2023/03/02 11:10:36;;;;;;;23.87;13.33;;;6.80;99.90;;;;;;4924989;28;48369;-74
2023/03/02 11:13:16;;;;;;;21.33;13.13;;;7.00;99.90;;;;;;4928620;28;38469;-75
2023/03/02 11:15:46;;;;;;;22.33;14.67;;;6.90;99.90;;;;;;4908364;29;37119;-74
2023/03/02 11:18:15;;;;;;;21.47;14.03;;;6.90;99.90;;;;;;4924006;28;38690;-75
2023/03/02 11:20:45;;;;;;;22.73;13.97;;;6.80;99.90;;;;;;4926152;28;36489;-77
2023/03/02 11:23:31;;;;;;;24.27;13.83;;;7.00;99.90;;;;;;4910602;28;37811;-74
2023/03/02 11:26:26;;;;;;;24.23;14.70;;;7.20;99.90;;;;;;4925357;28;37285;-74
2023/03/02 11:28:59;;;;;;;22.47;13.83;;;7.30;99.90;;;;;;4893815;29;47332;-74
2023/03/02 11:31:49;;;;;;;20.93;13.33;;;7.20;99.90;;;;;;4924537;28;37482;-76
2023/03/02 11:34:21;;;;;;;23.00;13.10;;;7.30;99.90;;;;;;4910830;28;39209;-75
2023/03/02 11:36:59;;;;;;;26.15;13.65;;;7.40;99.90;;;;;;4921202;28;35853;-75
2023/03/02 11:39:34;;;;;;;21.40;13.17;;;7.50;99.90;;;;;;4923131;28;38533;-76
2023/03/02 11:42:00;;;;;;;21.00;13.17;;;7.70;99.90;;;;;;4924010;28;37305;-76
2023/03/02 11:44:27;;;;;;;21.50;13.30;;;7.90;99.90;;;;;;4918379;28;38585;-75
2023/03/02 11:47:00;;;;;;;24.53;13.60;;;8.00;99.90;;;;;;4918716;29;38223;-76
2023/03/02 11:49:39;;;;;;;21.25;13.45;;;8.00;99.90;;;;;;4908503;29;39248;-76
2023/03/02 11:52:15;;;;;;;21.07;13.27;;;8.00;99.90;;;;;;4925294;28;36055;-76
2023/03/02 11:54:52;;;;;;;18.70;12.67;;;8.20;99.90;;;;;;4935867;28;38764;-75
2023/03/02 11:57:47;;;;;;;21.57;13.17;;;8.30;99.90;;;;;;4908717;28;37732;-76
2023/03/02 12:00:30;;;;;;;23.77;14.17;;;8.20;99.90;;;;;;4930721;28;37214;-75
2023/03/02 12:03:00;;;;;;;22.03;13.40;;;8.30;99.90;;;;;;4906376;28;47344;-74
2023/03/02 12:05:29;;;;;;;23.83;13.67;;;8.20;99.90;;;;;;4910072;28;37968;-76
2023/03/02 12:08:02;;;;;;;19.73;12.93;;;8.30;99.90;;;;;;4907745;28;37156;-76
2023/03/02 12:10:37;;;;;;;23.37;13.80;;;8.30;99.90;;;;;;4919416;28;46948;-76
2023/03/02 12:13:15;;;;;;;22.50;13.33;;;8.50;99.90;;;;;;4925105;28;37475;-76
2023/03/02 12:15:44;;;;;;;23.53;13.80;;;8.50;99.90;;;;;;4924290;28;39645;-76
2023/03/02 12:18:26;;;;;;;24.20;14.63;;;8.70;99.90;;;;;;4927357;28;38445;-76
2023/03/02 12:21:16;;;;;;;22.07;14.17;;;8.90;99.90;;;;;;4926648;28;37693;-77
2023/03/02 12:23:48;;;;;;;23.67;13.53;;;9.10;99.90;;;;;;4914569;29;47154;-76
2023/03/02 12:26:20;;;;;;;22.85;13.18;;;9.10;99.90;;;;;;4927849;28;38994;-76
2023/03/02 12:29:03;;;;;;;22.88;13.60;;;9.10;99.90;;;;;;4926386;28;38718;-76
2023/03/02 12:31:50;;;;;;;23.05;14.30;;;9.00;99.90;;;;;;4915338;29;45909;-77
2023/03/02 12:34:23;;;;;;;20.07;13.30;;;9.00;99.90;;;;;;4927317;28;37569;-76
2023/03/02 12:37:20;;;;;;;26.20;16.13;;;9.10;99.90;;;;;;4925119;28;37655;-76
2023/03/02 12:40:08;;;;;;;24.63;15.07;;;9.00;99.90;;;;;;4918330;29;47195;-75
2023/03/02 12:43:11;;;;;;;24.77;15.67;;;8.90;99.90;;;;;;4925736;28;47340;-74
2023/03/02 12:46:24;;;;;;;22.77;14.63;;;8.90;99.90;;;;;;4920461;28;47202;-75
2023/03/02 12:49:10;;;;;;;19.13;12.80;;;8.90;99.90;;;;;;4891346;29;47526;-74
2023/03/02 12:51:54;;;;;;;21.03;13.33;;;9.10;99.90;;;;;;4926952;28;49129;-74
2023/03/02 12:54:23;;;;;;;19.47;13.13;;;9.30;99.90;;;;;;4926247;28;36571;-74
2023/03/02 12:57:01;;;;;;;22.00;13.83;;;9.40;99.90;;;;;;4919969;29;36769;-74
2023/03/02 12:59:28;;;;;;;19.43;12.47;;;9.40;99.90;;;;;;4912927;28;46847;-74